createdAt,value
2023-03-27T00:02:03.161Z,37.34
2023-03-27T00:04:34.117Z,37.37
2023-03-27T00:07:35.948Z,37.41
2023-03-27T00:10:08.217Z,37.46
2023-03-27T00:12:40.477Z,37.50
2023-03-27T00:15:14.020Z,37.55
2023-03-27T00:17:45.723Z,37.59
2023-03-27T00:20:28.036Z,37.63
2023-03-27T00:22:58.175Z,37.60
2023-03-27T00:25:29.885Z,37.62
2023-03-27T00:28:00.140Z,37.69
2023-03-27T00:30:30.830Z,37.62
2023-03-27T00:33:01.184Z,37.63
2023-03-27T00:35:36.252Z,37.68
2023-03-27T00:38:06.439Z,37.60
2023-03-27T00:40:36.529Z,37.34
2023-03-27T00:43:23.173Z,37.59
2023-03-27T00:45:55.761Z,37.63
2023-03-27T00:48:26.142Z,37.61
2023-03-27T00:51:07.244Z,37.60
2023-03-27T00:53:39.759Z,37.58
2023-03-27T00:56:11.229Z,37.57
2023-03-27T00:58:55.394Z,37.57
2023-03-27T01:01:25.527Z,37.59
2023-03-27T01:04:15.839Z,37.60
2023-03-27T01:06:46.151Z,37.59
2023-03-27T01:09:20.349Z,37.59
2023-03-27T01:15:44.514Z,37.60
2023-03-27T01:18:55.668Z,37.57
2023-03-27T01:21:50.599Z,37.54
2023-03-27T01:24:26.498Z,37.55
2023-03-27T01:27:23.665Z,37.52
2023-03-27T01:33:30.598Z,37.44
2023-03-27T01:36:25.954Z,37.41
2023-03-27T01:39:19.204Z,37.45
2023-03-27T01:42:23.454Z,37.44
2023-03-27T01:45:20.989Z,37.40
2023-03-27T01:48:08.798Z,37.38
2023-03-27T01:50:58.065Z,37.33
2023-03-27T01:53:49.529Z,37.30
2023-03-27T01:59:21.215Z,37.26
2023-03-27T02:02:03.725Z,37.26
2023-03-27T02:04:49.955Z,37.23
2023-03-27T02:07:36.296Z,37.21
2023-03-27T02:10:18.575Z,37.15
2023-03-27T02:12:56.477Z,37.16
2023-03-27T02:15:33.254Z,37.17
2023-03-27T02:18:12.294Z,37.16
2023-03-27T02:21:25.961Z,37.13
2023-03-27T02:24:32.051Z,37.09
2023-03-27T02:27:32.149Z,37.09
2023-03-27T02:30:45.220Z,37.08
2023-03-27T02:33:40.831Z,37.08
2023-03-27T02:36:40.801Z,37.06
2023-03-27T02:42:38.772Z,37.03
2023-03-27T02:45:38.596Z,37.04
2023-03-27T02:48:30.475Z,37.08
2023-03-27T02:54:46.587Z,37.04
2023-03-27T02:57:31.176Z,37.00
2023-03-27T03:09:41.376Z,37.03
2023-03-27T03:12:21.101Z,36.98
2023-03-27T03:15:21.838Z,37.00
2023-03-27T03:18:10.171Z,36.99
2023-03-27T03:23:36.232Z,37.00
2023-03-27T03:26:07.507Z,36.98
2023-03-27T03:28:37.663Z,36.96
2023-03-27T03:31:11.318Z,36.91
2023-03-27T03:34:28.731Z,36.96
2023-03-27T03:37:05.287Z,36.93
2023-03-27T03:39:45.215Z,36.91
2023-03-27T03:42:24.110Z,36.85
2023-03-27T03:45:36.062Z,36.92
2023-03-27T03:48:52.104Z,36.96
2023-03-27T03:51:33.920Z,36.88
2023-03-27T04:00:36.508Z,36.88
2023-03-27T04:03:42.914Z,36.91
2023-03-27T04:06:36.489Z,36.82
2023-03-27T04:09:30.072Z,36.79
2023-03-27T04:12:46.538Z,36.86
2023-03-27T04:18:42.128Z,36.88
2023-03-27T04:21:57.198Z,36.86
2023-03-27T04:24:34.300Z,36.84
2023-03-27T04:27:37.371Z,36.80
2023-03-27T04:30:34.696Z,36.81
2023-03-27T04:33:36.085Z,36.79
2023-03-27T04:36:22.167Z,36.80
2023-03-27T04:45:36.664Z,36.73
2023-03-27T04:51:21.584Z,36.76
2023-03-27T04:59:50.570Z,36.73
2023-03-27T05:02:20.958Z,36.70
2023-03-27T05:05:14.244Z,36.68
2023-03-27T05:07:33.323Z,36.68
2023-03-27T05:10:03.556Z,36.68
2023-03-27T05:13:03.798Z,36.62
2023-03-27T05:19:07.075Z,36.59
2023-03-27T05:22:07.545Z,36.60
2023-03-27T05:28:28.970Z,36.59
2023-03-27T05:31:11.381Z,36.56
2023-03-27T05:33:49.999Z,36.57
2023-03-27T05:37:17.177Z,36.57
2023-03-27T05:39:58.759Z,36.55
2023-03-27T05:43:21.171Z,36.54
2023-03-27T05:54:38.593Z,36.51
2023-03-27T05:57:36.093Z,36.48
2023-03-27T06:03:02.284Z,36.51
2023-03-27T06:05:42.464Z,36.48
2023-03-27T06:08:17.492Z,36.49
2023-03-27T06:10:49.809Z,36.49
2023-03-27T06:16:27.112Z,36.46
2023-03-27T06:19:12.683Z,36.47
2023-03-27T06:22:04.393Z,36.45
2023-03-27T06:24:52.478Z,36.46
2023-03-27T06:28:14.989Z,36.44
2023-03-27T06:31:06.219Z,36.42
2023-03-27T06:34:00.759Z,36.43
2023-03-27T06:37:06.840Z,36.43
2023-03-27T06:43:29.005Z,36.41
2023-03-27T06:46:45.940Z,36.41
2023-03-27T06:49:20.053Z,36.42
2023-03-27T06:55:18.896Z,36.40
2023-03-27T06:58:34.989Z,36.39
2023-03-27T07:01:36.227Z,36.36
2023-03-27T07:07:40.340Z,36.34
2023-03-27T07:10:34.778Z,36.36
2023-03-27T07:16:30.901Z,36.35
2023-03-27T07:19:04.336Z,36.33
2023-03-27T07:27:14.445Z,36.31
2023-03-27T07:29:46.684Z,36.30
2023-03-27T07:32:33.992Z,36.31
2023-03-27T07:34:56.063Z,36.31
2023-03-27T07:37:38.395Z,36.28
2023-03-27T07:43:29.006Z,36.29
2023-03-27T07:46:07.989Z,36.26
2023-03-27T07:55:21.508Z,36.21
2023-03-27T07:58:28.227Z,36.21
2023-03-27T08:01:22.092Z,36.21
2023-03-27T08:04:30.749Z,36.21
2023-03-27T08:07:13.920Z,36.18
2023-03-27T08:10:54.751Z,36.20
2023-03-27T08:13:33.495Z,36.21
2023-03-27T08:16:16.432Z,36.19
2023-03-27T08:19:22.471Z,36.19
2023-03-27T08:22:36.929Z,36.18
2023-03-27T08:25:29.436Z,36.14
2023-03-27T08:28:22.189Z,36.11
2023-03-27T08:31:16.500Z,36.14
2023-03-27T08:37:10.951Z,36.14
2023-03-27T08:40:19.881Z,36.13
2023-03-27T08:43:29.059Z,36.11
2023-03-27T08:46:28.073Z,36.10
2023-03-27T08:58:27.316Z,36.07
2023-03-27T09:01:57.938Z,36.08
2023-03-27T09:08:12.300Z,36.06
2023-03-27T09:11:18.519Z,36.07
2023-03-27T09:13:50.091Z,36.04
2023-03-27T09:16:54.644Z,36.00
2023-03-27T09:19:43.988Z,36.05
2023-03-27T09:22:32.981Z,36.02
2023-03-27T09:25:39.145Z,36.01
2023-03-27T09:28:53.010Z,36.00
2023-03-27T09:32:04.943Z,35.99
2023-03-27T09:34:53.073Z,36.01
2023-03-27T09:37:49.403Z,35.99
2023-03-27T09:40:47.508Z,35.99
2023-03-27T09:43:41.963Z,35.99
2023-03-27T09:47:00.506Z,35.96
2023-03-27T09:49:52.059Z,35.96
2023-03-27T09:52:57.526Z,35.96
2023-03-27T09:55:40.611Z,35.97
2023-03-27T09:58:52.020Z,35.96
2023-03-27T10:01:51.381Z,35.97
2023-03-27T10:04:35.651Z,35.91
2023-03-27T10:10:23.919Z,35.91
2023-03-27T10:17:08.301Z,35.91
2023-03-27T10:19:49.115Z,35.90
2023-03-27T10:23:20.347Z,35.90
2023-03-27T10:26:06.070Z,35.92
2023-03-27T10:31:54.434Z,35.88
2023-03-27T10:35:03.214Z,35.86
2023-03-27T10:38:09.859Z,35.87
2023-03-27T10:40:56.538Z,35.84
2023-03-27T10:44:05.120Z,35.81
2023-03-27T10:50:20.300Z,35.92
2023-03-27T10:53:23.300Z,35.85
2023-03-27T10:56:17.534Z,35.82
2023-03-27T10:59:15.904Z,35.82
2023-03-27T11:02:10.781Z,35.84
2023-03-27T11:08:03.811Z,35.84
2023-03-27T11:13:54.933Z,36.08
2023-03-27T11:16:42.643Z,36.18
2023-03-27T11:19:58.031Z,36.23
2023-03-27T11:36:22.081Z,36.32
2023-03-27T11:39:20.592Z,36.34
2023-03-27T11:41:56.747Z,36.39
2023-03-27T11:47:41.712Z,36.46
2023-03-27T11:50:28.192Z,36.45
2023-03-27T11:53:25.082Z,36.48
2023-03-27T11:56:22.919Z,36.47
2023-03-27T11:59:25.803Z,36.46
2023-03-27T12:02:07.963Z,36.49
2023-03-27T12:05:08.072Z,36.47
2023-03-27T12:08:03.346Z,36.48
2023-03-27T12:10:57.495Z,36.45
2023-03-27T12:16:56.861Z,36.33
2023-03-27T12:20:12.919Z,36.50
2023-03-27T12:26:12.859Z,37.06
2023-03-27T12:29:25.988Z,37.20
2023-03-27T12:32:20.522Z,37.27
2023-03-27T12:35:21.387Z,37.27
2023-03-27T12:38:30.355Z,37.34
2023-03-27T12:41:40.998Z,37.19
2023-03-27T12:44:35.108Z,37.09
2023-03-27T12:53:34.576Z,36.10
2023-03-27T12:56:30.353Z,36.07
2023-03-27T13:02:57.982Z,35.63
2023-03-27T13:05:41.881Z,35.31
2023-03-27T13:08:54.354Z,35.23
2023-03-27T13:11:51.250Z,35.21
2023-03-27T13:14:30.823Z,35.33
2023-03-27T13:20:49.752Z,35.16
2023-03-27T13:23:47.204Z,34.82
2023-03-27T13:26:28.501Z,34.71
2023-03-27T13:29:30.822Z,34.78
2023-03-27T13:32:41.056Z,34.82
2023-03-27T13:35:46.175Z,34.93
2023-03-27T13:38:31.329Z,35.32
2023-03-27T13:41:20.254Z,35.18
2023-03-27T13:47:41.555Z,34.71
2023-03-27T13:50:44.026Z,35.13
2023-03-27T13:53:34.007Z,35.32
2023-03-27T13:56:28.342Z,35.18
2023-03-27T14:02:27.667Z,35.32
2023-03-27T14:05:37.020Z,35.19
2023-03-27T14:08:35.262Z,34.51
2023-03-27T14:11:39.378Z,34.36
2023-03-27T14:14:28.335Z,34.39
2023-03-27T14:21:00.066Z,34.76
2023-03-27T14:23:51.302Z,34.77
2023-03-27T14:26:32.957Z,34.55
2023-03-27T14:29:21.083Z,34.60
2023-03-27T14:32:16.721Z,34.37
2023-03-27T14:38:13.202Z,34.32
2023-03-27T14:41:36.338Z,34.56
2023-03-27T14:50:54.064Z,34.58
2023-03-27T14:53:49.738Z,34.55
2023-03-27T14:56:48.061Z,34.47
2023-03-27T15:00:08.392Z,34.42
2023-03-27T15:02:38.514Z,34.63
2023-03-27T15:05:47.595Z,34.67
2023-03-27T15:11:53.445Z,34.63
2023-03-27T15:14:47.596Z,34.62
2023-03-27T15:17:26.136Z,34.60
2023-03-27T15:20:49.284Z,34.60
2023-03-27T15:24:04.691Z,34.70
2023-03-27T15:26:55.044Z,34.77
2023-03-27T15:29:47.661Z,34.76
2023-03-27T15:32:33.003Z,34.81
2023-03-27T15:35:36.155Z,34.81
2023-03-27T15:45:37.854Z,34.86
2023-03-27T15:47:36.983Z,34.83
2023-03-27T15:53:58.180Z,34.87
2023-03-27T15:56:51.145Z,35.05
2023-03-27T15:59:52.953Z,35.08
2023-03-27T16:05:46.460Z,35.13
2023-03-27T16:08:56.564Z,34.96
2023-03-27T16:12:04.172Z,35.00
2023-03-27T16:15:17.597Z,35.06
2023-03-27T16:18:10.618Z,35.06
2023-03-27T16:20:51.729Z,35.08
2023-03-27T16:27:21.670Z,35.09
2023-03-27T16:29:54.425Z,35.11
2023-03-27T16:33:02.020Z,34.96
2023-03-27T16:35:39.710Z,34.96
2023-03-27T16:42:01.334Z,34.83
2023-03-27T16:51:18.450Z,34.95
2023-03-27T16:54:02.160Z,35.07
2023-03-27T17:03:26.405Z,35.17
2023-03-27T17:09:15.339Z,35.27
2023-03-27T17:12:07.110Z,35.31
2023-03-27T17:15:11.853Z,35.33
2023-03-27T17:18:23.487Z,35.42
2023-03-27T17:20:56.601Z,35.50
2023-03-27T17:26:52.732Z,35.63
2023-03-27T17:29:51.406Z,35.69
2023-03-27T17:35:39.997Z,35.85
2023-03-27T17:38:41.833Z,35.93
2023-03-27T17:41:34.024Z,35.88
2023-03-27T17:44:35.952Z,35.84
2023-03-27T17:46:54.035Z,35.80
2023-03-27T17:49:22.778Z,35.78
2023-03-27T17:51:56.336Z,35.78
2023-03-27T17:54:27.649Z,35.75
2023-03-27T18:10:28.216Z,35.67
2023-03-27T18:13:06.751Z,35.70
2023-03-27T18:15:34.733Z,35.73
2023-03-27T18:18:26.185Z,35.78
2023-03-27T18:20:58.314Z,35.78
2023-03-27T18:23:49.593Z,35.79
2023-03-27T18:26:48.234Z,35.79
2023-03-27T18:36:05.309Z,35.76
2023-03-27T18:48:04.053Z,35.78
2023-03-27T18:51:05.330Z,35.79
2023-03-27T18:57:19.730Z,35.79
2023-03-27T19:00:08.918Z,35.78
2023-03-27T19:03:59.016Z,35.80
2023-03-27T19:06:20.982Z,35.74
2023-03-27T19:11:41.892Z,35.83
2023-03-27T19:14:14.850Z,35.88
2023-03-27T19:16:47.921Z,35.86
2023-03-27T19:19:21.054Z,35.89
2023-03-27T19:21:51.948Z,35.88
2023-03-27T19:24:23.066Z,36.06
2023-03-27T19:27:23.822Z,36.06
2023-03-27T19:30:13.381Z,35.86
2023-03-27T19:33:14.270Z,35.87
2023-03-27T19:36:00.887Z,35.90
2023-03-27T19:39:13.099Z,35.92
2023-03-27T19:42:18.978Z,35.96
2023-03-27T19:45:24.135Z,35.89
2023-03-27T19:47:57.740Z,35.92
2023-03-27T19:51:08.410Z,35.96
2023-03-27T19:54:16.577Z,35.95
2023-03-27T19:57:02.836Z,35.93
2023-03-27T20:09:14.453Z,35.99
2023-03-27T20:12:19.868Z,36.01
2023-03-27T20:15:12.145Z,35.94
2023-03-27T20:21:17.745Z,35.97
2023-03-27T20:27:22.586Z,35.98
2023-03-27T20:33:44.941Z,36.00
2023-03-27T20:36:42.173Z,35.99
2023-03-27T20:42:52.710Z,36.04
2023-03-27T20:45:37.237Z,36.04
2023-03-27T20:48:54.330Z,36.00
2023-03-27T20:51:29.913Z,36.05
2023-03-27T20:54:17.783Z,36.03
2023-03-27T21:00:20.146Z,36.06
2023-03-27T21:03:17.444Z,36.04
2023-03-27T21:06:45.636Z,36.07
2023-03-27T21:09:53.033Z,36.04
2023-03-27T21:16:04.787Z,36.02
2023-03-27T22:24:04.432Z,36.75
2023-03-27T22:26:43.470Z,36.64
2023-03-27T22:29:17.924Z,36.61
2023-03-27T22:32:27.318Z,36.52
2023-03-27T22:35:02.724Z,36.47
2023-03-27T22:40:21.794Z,36.46
2023-03-27T22:42:52.057Z,36.45
2023-03-27T22:45:58.874Z,36.43
2023-03-27T22:48:38.991Z,36.38
2023-03-27T22:51:08.603Z,36.35
2023-03-27T22:53:48.926Z,36.32
2023-03-27T22:56:31.721Z,36.34
2023-03-27T23:02:38.003Z,36.29
2023-03-27T23:04:56.605Z,36.29
2023-03-27T23:07:28.091Z,36.30
2023-03-27T23:10:03.675Z,36.24
2023-03-27T23:12:38.985Z,36.25
2023-03-27T23:15:10.493Z,36.25
2023-03-27T23:20:33.862Z,36.25
2023-03-27T23:23:27.141Z,36.24
2023-03-27T23:26:27.951Z,36.23
2023-03-27T23:29:24.226Z,36.26
2023-03-27T23:32:11.061Z,36.21
2023-03-27T23:34:45.854Z,36.25
2023-03-27T23:37:16.562Z,36.28
2023-03-27T23:39:46.981Z,36.28
2023-03-27T23:42:17.274Z,36.29
2023-03-27T23:44:50.775Z,36.29
2023-03-27T23:47:40.698Z,36.26
2023-03-27T23:56:13.414Z,36.25
